Cartwright, Cartwright Airport (CYCA)

NameCartwright Airport
CityCartwright
CountryCanada
ICAOCYCA
IATAYRF
Altitude13 m
CoordinatesGoogle Map
Live Air TrafficLiveATC.net
METARCYCA 121300Z AUTO 34010KT 9SM CLR M16/M19 A2997 RMK SLP152
2018-12-12 13:00:00 Wind: North-Northwest (340°) 5.14 m/s - Visibility: 14484.06 m - Temperature: -16 °C - Dew point: -19 °C - Humidity: 77.9% - Pressure: 1014.9 hPa
Statistics

The table below shows the detailed information of all flights to/from Cartwright, Cartwright Airport (CYCA).